SBOSBO BIO / LEBB
Speedbird OnlineSpeedbird Online BIO / LEBB

Bilbao Airport
18:42 17.5°C

Location Bilbao, Spain
Latitude: 43.30110168457031
Longitude: -2.9106099605560303
Local Time 18:42 on 30 May 2024
UTC +2 hours (Europe/Madrid)
Currency £1 equals EUR 1.18
METAR LEBB 301600Z 29009KT 260V320 9999 SCT021 BKN030 OVC036 17/13 Q1020 NOSIG
TAF TAF LEBB 301100Z 3012/3112 31009KT 9999 SCT010 BKN020 TX19/3112Z TN12/3103Z PROB40 TEMPO 3012/3016 3000 BR BKN010 PROB30 TEMPO 3100/3106 DZ BKN010
Weather As Of 30 May 2024 18:42
Description Overcast clouds
Wind 18 km/h from North-West (300°)
Cloud Cover 100%
Precipitation Rain: none, Snow: none
Sunrise 06:35
Sunset 21:43
Lounges AENA Bilbao Lounge, Main Terminal
Web Airport Website | Wikipedia
Codes IATA: BIO
ICAO: LEBB
Altitude 42 Meter / 138 Feet
Distance 940 KM / 584 Miles
from London.
Runways
RunwayLength (m)Surface
102000Asphalt
122600Asphalt
282000Asphalt
302600Asphalt
Radio
TypeDescriptionFrequency
APPAPP120.7
ATISATIS118.825
GNDGND121.7
TWRTWR118.5
Live ATC



Support Speedbird Online

© 2017-2024 Speedbird Online